Airfield :
LOGIN :

Register | Disclaimer

   EN    FR    IT 

 










Legend :    VFR   Marginal VFR   IFR   Intensive IFR   Very Intensive IFR
Visi :
Ceiling :
>= 8 km
>= 3000ft
5 to 8 km
1000 to 3000 ft
1500m to 5 km
500 to 1000 ft
800 to 1500m
200 to 500 ft
< 800m
< 200 ft
Symbols :   Thunderstorms  Fog  Heavy snow  Heavy precipitations  Wind > 20 kt
SIGMETs :     Misc.  Thunderstorms  Icing  Turbulence  Mountain Waves  Volcanic Ashes






- Airport Elevation : 935 ft


EBFS - Florennes

CURRENT METAR :
  • 232025Z AUTO VRB02KT 9999 FEW075/// BKN095/// OVC110/// 14/12 Q1008 BLU

EXPIRED METARs :
  • 231955Z AUTO 10003KT 9999 FEW075/// BKN095/// BKN110/// 15/12 Q1008 BLU
  • 231925Z AUTO 08003KT 9999 FEW075/// SCT095/// BKN110/// 15/12 Q1009 BLU
  • 231855Z AUTO 20003KT 9999 FEW075/// SCT095/// BKN110/// 15/13 Q1009 BLU
  • 231825Z AUTO 21004KT 9999 FEW075/// SCT100/// BKN120/// 15/13 Q1010 BLU
  • 231755Z AUTO VRB02KT 9999 FEW085/// BKN110/// OVC130/// 16/12 Q1010 BLU

TAF TAF EBFS
Valid from the 23 at 19:00 until the 24 at 07:00 UTC


231541Z 2319/2407 15005KT 9999 BKN100
PROB30
TEMPO 2403/2407 5000 BR



MET'MAP, your aeronautical weather chart ! - Copyright ORBIFLY December 2007 - Disclaimer

ORBIFLY MET'MAP TEAM :

Programming & Development : Alexandra Zaïnal
Concept & Development : Baudouin d'Aumeries
Co-Development & Prog : Marc-Olivier Méhu
Technical & hardware support : Manuel Goepfert

Contact : metmap@orbifly.com




SOURCES & CREDITS :

   NOAA